sensor_id;sensor_type;location;lat;lon;timestamp;pressure;altitude;pressure_sealevel;temperature;humidity
70027;BME280;57506;50.092;15.804;2024-01-15T00:01:54;97489.06;;;1.00;85.96
70027;BME280;57506;50.092;15.804;2024-01-15T00:04:20;97488.84;;;1.10;86.02
70027;BME280;57506;50.092;15.804;2024-01-15T00:06:45;97492.84;;;1.06;86.36
70027;BME280;57506;50.092;15.804;2024-01-15T00:09:11;97457.97;;;0.86;86.06
70027;BME280;57506;50.092;15.804;2024-01-15T00:11:36;97450.69;;;0.88;86.41
70027;BME280;57506;50.092;15.804;2024-01-15T00:14:02;97455.00;;;0.89;85.84
70027;BME280;57506;50.092;15.804;2024-01-15T00:16:28;97437.13;;;0.83;86.26
70027;BME280;57506;50.092;15.804;2024-01-15T00:18:54;97459.59;;;0.95;86.53
70027;BME280;57506;50.092;15.804;2024-01-15T00:21:19;97434.84;;;0.80;86.97
70027;BME280;57506;50.092;15.804;2024-01-15T00:23:45;97452.16;;;0.91;86.79
70027;BME280;57506;50.092;15.804;2024-01-15T00:26:11;97439.72;;;0.91;86.46
70027;BME280;57506;50.092;15.804;2024-01-15T00:28:37;97437.19;;;0.98;85.35
70027;BME280;57506;50.092;15.804;2024-01-15T00:31:04;97434.34;;;0.99;85.75
70027;BME280;57506;50.092;15.804;2024-01-15T00:33:30;97426.22;;;1.01;86.36
70027;BME280;57506;50.092;15.804;2024-01-15T00:35:55;97437.66;;;1.01;85.68
70027;BME280;57506;50.092;15.804;2024-01-15T00:38:21;97397.09;;;0.70;85.76
70027;BME280;57506;50.092;15.804;2024-01-15T00:40:47;97432.44;;;0.93;86.77
70027;BME280;57506;50.092;15.804;2024-01-15T00:43:12;97398.59;;;0.73;86.10
70027;BME280;57506;50.092;15.804;2024-01-15T00:45:38;97422.50;;;0.87;86.56
70027;BME280;57506;50.092;15.804;2024-01-15T00:48:04;97420.22;;;0.84;87.03
70027;BME280;57506;50.092;15.804;2024-01-15T00:50:30;97420.94;;;0.78;87.50
70027;BME280;57506;50.092;15.804;2024-01-15T00:52:55;97388.44;;;0.53;88.18
70027;BME280;57506;50.092;15.804;2024-01-15T00:55:21;97387.50;;;0.46;89.31
70027;BME280;57506;50.092;15.804;2024-01-15T00:57:46;97389.31;;;0.46;90.10
70027;BME280;57506;50.092;15.804;2024-01-15T01:00:12;97399.56;;;0.49;91.04
70027;BME280;57506;50.092;15.804;2024-01-15T01:02:38;97396.97;;;0.41;91.70
70027;BME280;57506;50.092;15.804;2024-01-15T01:05:04;97398.59;;;0.42;92.17
70027;BME280;57506;50.092;15.804;2024-01-15T01:07:29;97362.59;;;0.24;92.39
70027;BME280;57506;50.092;15.804;2024-01-15T01:09:55;97392.97;;;0.45;92.42
70027;BME280;57506;50.092;15.804;2024-01-15T01:12:21;97403.03;;;0.49;92.35
70027;BME280;57506;50.092;15.804;2024-01-15T01:14:48;97389.66;;;0.43;92.15
70027;BME280;57506;50.092;15.804;2024-01-15T01:17:13;97373.09;;;0.41;92.42
70027;BME280;57506;50.092;15.804;2024-01-15T01:19:39;97388.16;;;0.48;92.09
70027;BME280;57506;50.092;15.804;2024-01-15T01:22:04;97375.41;;;0.44;91.51
70027;BME280;57506;50.092;15.804;2024-01-15T01:24:30;97368.81;;;0.40;91.34
70027;BME280;57506;50.092;15.804;2024-01-15T01:26:55;97392.91;;;0.53;90.12
70027;BME280;57506;50.092;15.804;2024-01-15T01:29:21;97390.25;;;0.53;90.65
70027;BME280;57506;50.092;15.804;2024-01-15T01:31:48;97374.69;;;0.50;89.76
70027;BME280;57506;50.092;15.804;2024-01-15T01:34:15;97377.97;;;0.60;89.23
70027;BME280;57506;50.092;15.804;2024-01-15T01:36:41;97376.66;;;0.56;89.82
70027;BME280;57506;50.092;15.804;2024-01-15T01:39:07;97372.34;;;0.55;89.01
70027;BME280;57506;50.092;15.804;2024-01-15T01:41:32;97363.66;;;0.46;89.19
70027;BME280;57506;50.092;15.804;2024-01-15T01:43:58;97353.41;;;0.43;88.44
70027;BME280;57506;50.092;15.804;2024-01-15T01:46:24;97360.44;;;0.51;87.95
70027;BME280;57506;50.092;15.804;2024-01-15T01:48:52;97362.06;;;0.60;88.42
70027;BME280;57506;50.092;15.804;2024-01-15T01:51:20;97371.66;;;0.61;88.12
70027;BME280;57506;50.092;15.804;2024-01-15T01:53:46;97367.22;;;0.53;88.50
70027;BME280;57506;50.092;15.804;2024-01-15T01:56:13;97383.28;;;0.60;87.58
70027;BME280;57506;50.092;15.804;2024-01-15T01:58:39;97391.22;;;0.60;87.18
70027;BME280;57506;50.092;15.804;2024-01-15T02:01:05;97373.19;;;0.55;86.83
70027;BME280;57506;50.092;15.804;2024-01-15T02:03:31;97366.94;;;0.48;87.48
70027;BME280;57506;50.092;15.804;2024-01-15T02:05:56;97374.34;;;0.53;87.55
70027;BME280;57506;50.092;15.804;2024-01-15T02:08:22;97363.28;;;0.49;87.10
70027;BME280;57506;50.092;15.804;2024-01-15T02:10:48;97354.81;;;0.54;87.49
70027;BME280;57506;50.092;15.804;2024-01-15T02:13:13;97334.38;;;0.40;87.44
70027;BME280;57506;50.092;15.804;2024-01-15T02:15:40;97345.63;;;0.42;87.68
70027;BME280;57506;50.092;15.804;2024-01-15T02:18:06;97348.75;;;0.45;88.07
70027;BME280;57506;50.092;15.804;2024-01-15T02:20:35;97344.56;;;0.51;87.87
70027;BME280;57506;50.092;15.804;2024-01-15T02:23:21;97326.06;;;0.43;87.67
70027;BME280;57506;50.092;15.804;2024-01-15T02:25:47;97329.03;;;0.48;87.78
70027;BME280;57506;50.092;15.804;2024-01-15T02:28:15;97281.34;;;0.17;87.77
70027;BME280;57506;50.092;15.804;2024-01-15T02:30:41;97314.00;;;0.40;87.02
70027;BME280;57506;50.092;15.804;2024-01-15T02:33:08;97334.31;;;0.48;87.51
70027;BME280;57506;50.092;15.804;2024-01-15T02:35:34;97314.31;;;0.45;87.10
70027;BME280;57506;50.092;15.804;2024-01-15T02:38:04;97312.16;;;0.41;87.33
70027;BME280;57506;50.092;15.804;2024-01-15T02:40:30;97316.16;;;0.37;87.50
70027;BME280;57506;50.092;15.804;2024-01-15T02:42:55;97330.53;;;0.42;87.48
70027;BME280;57506;50.092;15.804;2024-01-15T02:45:22;97320.47;;;0.38;87.08
70027;BME280;57506;50.092;15.804;2024-01-15T02:47:47;97328.91;;;0.41;87.10
70027;BME280;57506;50.092;15.804;2024-01-15T02:50:13;97325.41;;;0.41;87.43
70027;BME280;57506;50.092;15.804;2024-01-15T02:52:39;97322.59;;;0.42;87.72
70027;BME280;57506;50.092;15.804;2024-01-15T02:55:05;97311.75;;;0.29;88.20
70027;BME280;57506;50.092;15.804;2024-01-15T02:57:31;97309.22;;;0.35;87.07
70027;BME280;57506;50.092;15.804;2024-01-15T02:59:57;97316.16;;;0.37;87.41
70027;BME280;57506;50.092;15.804;2024-01-15T03:02:22;97298.34;;;0.30;87.23
70027;BME280;57506;50.092;15.804;2024-01-15T03:04:48;97306.56;;;0.35;86.79
70027;BME280;57506;50.092;15.804;2024-01-15T03:07:13;97306.38;;;0.37;86.77
70027;BME280;57506;50.092;15.804;2024-01-15T03:09:39;97298.41;;;0.45;86.72
70027;BME280;57506;50.092;15.804;2024-01-15T03:12:06;97295.44;;;0.40;88.02
70027;BME280;57506;50.092;15.804;2024-01-15T03:14:31;97286.38;;;0.34;87.48
70027;BME280;57506;50.092;15.804;2024-01-15T03:16:57;97286.84;;;0.38;86.78
70027;BME280;57506;50.092;15.804;2024-01-15T03:19:23;97276.97;;;0.32;86.42
70027;BME280;57506;50.092;15.804;2024-01-15T03:21:48;97292.63;;;0.42;87.11
70027;BME280;57506;50.092;15.804;2024-01-15T03:24:14;97282.19;;;0.40;86.93
70027;BME280;57506;50.092;15.804;2024-01-15T03:26:40;97283.38;;;0.38;86.80
70027;BME280;57506;50.092;15.804;2024-01-15T03:29:05;97276.41;;;0.37;86.67
70027;BME280;57506;50.092;15.804;2024-01-15T03:31:32;97267.81;;;0.34;86.65
70027;BME280;57506;50.092;15.804;2024-01-15T03:33:58;97268.47;;;0.37;86.64
70027;BME280;57506;50.092;15.804;2024-01-15T03:36:23;97273.41;;;0.40;86.50
70027;BME280;57506;50.092;15.804;2024-01-15T03:38:49;97286.50;;;0.41;86.96
70027;BME280;57506;50.092;15.804;2024-01-15T03:41:17;97256.66;;;0.24;86.83
70027;BME280;57506;50.092;15.804;2024-01-15T03:43:42;97269.53;;;0.27;86.89
70027;BME280;57506;50.092;15.804;2024-01-15T03:46:08;97275.16;;;0.32;86.48
70027;BME280;57506;50.092;15.804;2024-01-15T03:48:34;97273.19;;;0.26;86.41
70027;BME280;57506;50.092;15.804;2024-01-15T03:50:59;97264.59;;;0.24;87.24
70027;BME280;57506;50.092;15.804;2024-01-15T03:53:25;97280.63;;;0.31;86.54
70027;BME280;57506;50.092;15.804;2024-01-15T03:55:51;97274.72;;;0.21;86.85
70027;BME280;57506;50.092;15.804;2024-01-15T03:58:17;97271.53;;;0.25;86.42
70027;BME280;57506;50.092;15.804;2024-01-15T04:00:43;97262.47;;;0.20;86.91
70027;BME280;57506;50.092;15.804;2024-01-15T04:03:09;97269.88;;;0.24;86.98
70027;BME280;57506;50.092;15.804;2024-01-15T04:05:34;97278.97;;;0.30;86.23
70027;BME280;57506;50.092;15.804;2024-01-15T04:08:00;97280.47;;;0.24;86.54
70027;BME280;57506;50.092;15.804;2024-01-15T04:10:25;97278.84;;;0.23;86.32
70027;BME280;57506;50.092;15.804;2024-01-15T04:12:51;97266.94;;;0.19;86.59
70027;BME280;57506;50.092;15.804;2024-01-15T04:15:17;97254.78;;;0.02;86.68
70027;BME280;57506;50.092;15.804;2024-01-15T04:17:42;97279.91;;;0.14;86.54
70027;BME280;57506;50.092;15.804;2024-01-15T04:20:08;97300.13;;;0.07;86.74
70027;BME280;57506;50.092;15.804;2024-01-15T04:22:35;97303.09;;;0.12;86.91
70027;BME280;57506;50.092;15.804;2024-01-15T04:25:01;97262.81;;;-0.06;86.49
70027;BME280;57506;50.092;15.804;2024-01-15T04:27:26;97302.53;;;0.17;86.49
70027;BME280;57506;50.092;15.804;2024-01-15T04:29:52;97288.84;;;0.13;86.83
70027;BME280;57506;50.092;15.804;2024-01-15T04:32:18;97309.38;;;0.11;86.85
70027;BME280;57506;50.092;15.804;2024-01-15T04:34:43;97296.63;;;0.15;85.83
70027;BME280;57506;50.092;15.804;2024-01-15T04:37:09;97291.78;;;0.18;85.35
70027;BME280;57506;50.092;15.804;2024-01-15T04:39:34;97281.75;;;0.06;85.66
70027;BME280;57506;50.092;15.804;2024-01-15T04:42:00;97305.00;;;0.18;84.63
70027;BME280;57506;50.092;15.804;2024-01-15T04:44:26;97303.38;;;0.17;85.08
70027;BME280;57506;50.092;15.804;2024-01-15T04:46:51;97278.59;;;0.10;84.33
70027;BME280;57506;50.092;15.804;2024-01-15T04:49:16;97287.84;;;0.14;84.66
70027;BME280;57506;50.092;15.804;2024-01-15T04:51:42;97303.66;;;0.22;84.34
70027;BME280;57506;50.092;15.804;2024-01-15T04:54:08;97304.97;;;0.26;84.51
70027;BME280;57506;50.092;15.804;2024-01-15T04:56:33;97303.31;;;0.25;84.54
70027;BME280;57506;50.092;15.804;2024-01-15T04:58:59;97260.91;;;0.03;84.18
70027;BME280;57506;50.092;15.804;2024-01-15T05:01:24;97291.78;;;0.18;84.26
70027;BME280;57506;50.092;15.804;2024-01-15T05:03:50;97281.91;;;0.12;83.90
70027;BME280;57506;50.092;15.804;2024-01-15T05:06:16;97262.56;;;0.04;83.61
70027;BME280;57506;50.092;15.804;2024-01-15T05:08:41;97291.50;;;0.13;83.93
70027;BME280;57506;50.092;15.804;2024-01-15T05:11:07;97256.00;;;-0.01;84.24
70027;BME280;57506;50.092;15.804;2024-01-15T05:13:32;97282.09;;;0.03;84.14
70027;BME280;57506;50.092;15.804;2024-01-15T05:15:58;97208.75;;;-0.43;84.20
70027;BME280;57506;50.092;15.804;2024-01-15T05:18:24;97295.97;;;0.13;84.73
70027;BME280;57506;50.092;15.804;2024-01-15T05:20:49;97280.59;;;0.08;83.96
70027;BME280;57506;50.092;15.804;2024-01-15T05:23:15;97297.78;;;0.12;83.82
70027;BME280;57506;50.092;15.804;2024-01-15T05:25:40;97294.31;;;0.12;83.58
70027;BME280;57506;50.092;15.804;2024-01-15T05:28:06;97284.91;;;0.01;83.71
70027;BME280;57506;50.092;15.804;2024-01-15T05:30:31;97276.69;;;-0.04;83.77
70027;BME280;57506;50.092;15.804;2024-01-15T05:32:57;97289.84;;;0.12;83.92
70027;BME280;57506;50.092;15.804;2024-01-15T05:35:25;97281.41;;;0.09;83.93
70027;BME280;57506;50.092;15.804;2024-01-15T05:37:50;97304.56;;;0.15;84.05
70027;BME280;57506;50.092;15.804;2024-01-15T05:40:16;97280.66;;;0.00;83.87
70027;BME280;57506;50.092;15.804;2024-01-15T05:42:42;97294.47;;;0.10;84.40
70027;BME280;57506;50.092;15.804;2024-01-15T05:45:07;97291.00;;;0.10;84.54
70027;BME280;57506;50.092;15.804;2024-01-15T05:47:33;97289.88;;;0.04;84.82
70027;BME280;57506;50.092;15.804;2024-01-15T05:50:00;97292.53;;;0.04;84.55
70027;BME280;57506;50.092;15.804;2024-01-15T05:52:26;97284.31;;;-0.09;85.15
70027;BME280;57506;50.092;15.804;2024-01-15T05:54:51;97293.91;;;-0.08;84.76
70027;BME280;57506;50.092;15.804;2024-01-15T05:57:17;97303.28;;;0.03;84.60
70027;BME280;57506;50.092;15.804;2024-01-15T05:59:44;97305.41;;;0.07;84.69
70027;BME280;57506;50.092;15.804;2024-01-15T06:02:10;97309.91;;;0.07;84.46
70027;BME280;57506;50.092;15.804;2024-01-15T06:04:36;97311.88;;;0.05;84.76
70027;BME280;57506;50.092;15.804;2024-01-15T06:07:02;97301.88;;;-0.08;84.54
70027;BME280;57506;50.092;15.804;2024-01-15T06:09:27;97303.28;;;0.03;84.32
70027;BME280;57506;50.092;15.804;2024-01-15T06:11:53;97319.97;;;0.11;84.09
70027;BME280;57506;50.092;15.804;2024-01-15T06:14:19;97325.94;;;0.05;85.11
70027;BME280;57506;50.092;15.804;2024-01-15T06:16:45;97329.25;;;0.07;84.68
70027;BME280;57506;50.092;15.804;2024-01-15T06:19:10;97325.28;;;0.11;84.15
70027;BME280;57506;50.092;15.804;2024-01-15T06:21:36;97330.91;;;0.08;84.39
70027;BME280;57506;50.092;15.804;2024-01-15T06:24:01;97297.91;;;-0.12;84.36
70027;BME280;57506;50.092;15.804;2024-01-15T06:26:27;97334.56;;;0.07;84.42
70027;BME280;57506;50.092;15.804;2024-01-15T06:28:52;97338.03;;;0.08;85.09
70027;BME280;57506;50.092;15.804;2024-01-15T06:31:18;97323.53;;;-0.05;84.56
70027;BME280;57506;50.092;15.804;2024-01-15T06:33:43;97328.66;;;-0.03;85.19
70027;BME280;57506;50.092;15.804;2024-01-15T06:36:12;97342.34;;;0.00;85.03
70027;BME280;57506;50.092;15.804;2024-01-15T06:38:38;97323.72;;;-0.14;85.04
70027;BME280;57506;50.092;15.804;2024-01-15T06:41:03;97335.59;;;-0.02;85.08
70027;BME280;57506;50.092;15.804;2024-01-15T06:43:29;97345.38;;;-0.03;85.11
70027;BME280;57506;50.092;15.804;2024-01-15T06:45:54;97335.63;;;-0.10;85.95
70027;BME280;57506;50.092;15.804;2024-01-15T06:48:20;97350.50;;;-0.09;85.27
70027;BME280;57506;50.092;15.804;2024-01-15T06:50:45;97332.66;;;-0.15;86.29
70027;BME280;57506;50.092;15.804;2024-01-15T06:53:11;97316.50;;;-0.28;85.83
70027;BME280;57506;50.092;15.804;2024-01-15T06:55:38;97333.03;;;-0.18;85.66
70027;BME280;57506;50.092;15.804;2024-01-15T06:58:03;97324.28;;;-0.27;85.23
70027;BME280;57506;50.092;15.804;2024-01-15T07:00:29;97320.63;;;-0.26;85.86
70027;BME280;57506;50.092;15.804;2024-01-15T07:02:54;97330.91;;;-0.31;85.74
70027;BME280;57506;50.092;15.804;2024-01-15T07:05:20;97342.69;;;-0.33;85.82
70027;BME280;57506;50.092;15.804;2024-01-15T07:07:46;97350.91;;;-0.28;85.43
70027;BME280;57506;50.092;15.804;2024-01-15T07:10:13;97369.94;;;-0.25;85.50
70027;BME280;57506;50.092;15.804;2024-01-15T07:12:38;97364.16;;;-0.28;85.58
70027;BME280;57506;50.092;15.804;2024-01-15T07:15:04;97367.63;;;-0.28;86.10
70027;BME280;57506;50.092;15.804;2024-01-15T07:17:32;97341.09;;;-0.51;86.01
70027;BME280;57506;50.092;15.804;2024-01-15T07:19:57;97371.13;;;-0.36;85.71
70027;BME280;57506;50.092;15.804;2024-01-15T07:22:23;97360.22;;;-0.41;85.63
70027;BME280;57506;50.092;15.804;2024-01-15T07:24:48;97381.69;;;-0.27;85.50
70027;BME280;57506;50.092;15.804;2024-01-15T07:27:14;97372.47;;;-0.40;85.74
70027;BME280;57506;50.092;15.804;2024-01-15T07:29:39;97373.81;;;-0.52;85.89
70027;BME280;57506;50.092;15.804;2024-01-15T07:32:05;97386.84;;;-0.42;86.05
70027;BME280;57506;50.092;15.804;2024-01-15T07:34:32;97382.06;;;-0.47;86.39
70027;BME280;57506;50.092;15.804;2024-01-15T07:36:58;97385.69;;;-0.48;86.54
70027;BME280;57506;50.092;15.804;2024-01-15T07:39:24;97390.66;;;-0.37;85.88
70027;BME280;57506;50.092;15.804;2024-01-15T07:41:51;97371.47;;;-0.47;85.61
70027;BME280;57506;50.092;15.804;2024-01-15T07:44:17;97398.38;;;-0.27;85.26
70027;BME280;57506;50.092;15.804;2024-01-15T07:46:46;97391.72;;;-0.15;84.56
70027;BME280;57506;50.092;15.804;2024-01-15T07:49:12;97396.69;;;-0.12;84.36
70027;BME280;57506;50.092;15.804;2024-01-15T07:51:38;97386.91;;;-0.11;83.59
70027;BME280;57506;50.092;15.804;2024-01-15T07:54:06;97401.44;;;0.01;83.85
70027;BME280;57506;50.092;15.804;2024-01-15T07:56:32;97397.00;;;-0.07;83.92
70027;BME280;57506;50.092;15.804;2024-01-15T07:58:58;97405.28;;;-0.02;83.98
70027;BME280;57506;50.092;15.804;2024-01-15T08:01:24;97384.59;;;-0.06;84.16
70027;BME280;57506;50.092;15.804;2024-01-15T08:03:49;97378.31;;;-0.05;83.54
70027;BME280;57506;50.092;15.804;2024-01-15T08:06:15;97406.56;;;0.03;83.92
70027;BME280;57506;50.092;15.804;2024-01-15T08:08:41;97398.31;;;-0.03;82.69
70027;BME280;57506;50.092;15.804;2024-01-15T08:11:06;97377.38;;;-0.20;84.03
70027;BME280;57506;50.092;15.804;2024-01-15T08:13:32;97401.16;;;-0.12;83.08
70027;BME280;57506;50.092;15.804;2024-01-15T08:15:58;97404.47;;;-0.10;83.05
70027;BME280;57506;50.092;15.804;2024-01-15T08:18:23;97403.09;;;0.02;83.65
70027;BME280;57506;50.092;15.804;2024-01-15T08:20:49;97396.94;;;0.10;82.94
70027;BME280;57506;50.092;15.804;2024-01-15T08:23:16;97394.31;;;0.02;81.77
70027;BME280;57506;50.092;15.804;2024-01-15T08:25:42;97395.06;;;0.26;81.96
70027;BME280;57506;50.092;15.804;2024-01-15T08:28:08;97401.28;;;0.33;82.27
70027;BME280;57506;50.092;15.804;2024-01-15T08:30:34;97397.69;;;0.26;81.61
70027;BME280;57506;50.092;15.804;2024-01-15T08:33:00;97409.88;;;0.35;81.87
70027;BME280;57506;50.092;15.804;2024-01-15T08:35:25;97389.41;;;0.29;81.37
70027;BME280;57506;50.092;15.804;2024-01-15T08:37:54;97404.41;;;0.45;81.94
70027;BME280;57506;50.092;15.804;2024-01-15T08:40:20;97390.84;;;0.40;80.58
70027;BME280;57506;50.092;15.804;2024-01-15T08:42:46;97394.72;;;0.21;80.95
70027;BME280;57506;50.092;15.804;2024-01-15T08:45:12;97403.66;;;0.20;81.03
70027;BME280;57506;50.092;15.804;2024-01-15T08:47:38;97409.13;;;0.19;81.54
70027;BME280;57506;50.092;15.804;2024-01-15T08:50:04;97378.75;;;0.07;81.71
70027;BME280;57506;50.092;15.804;2024-01-15T08:52:30;97394.06;;;0.19;81.37
70027;BME280;57506;50.092;15.804;2024-01-15T08:54:56;97403.38;;;0.15;81.42
70027;BME280;57506;50.092;15.804;2024-01-15T08:57:22;97405.66;;;0.18;81.13
70027;BME280;57506;50.092;15.804;2024-01-15T08:59:48;97401.38;;;0.17;81.25
70027;BME280;57506;50.092;15.804;2024-01-15T09:02:14;97373.34;;;0.00;81.11
70027;BME280;57506;50.092;15.804;2024-01-15T09:04:40;97401.03;;;0.20;81.08
70027;BME280;57506;50.092;15.804;2024-01-15T09:07:07;97400.19;;;0.28;81.70
70027;BME280;57506;50.092;15.804;2024-01-15T09:09:32;97398.00;;;0.31;81.16
70027;BME280;57506;50.092;15.804;2024-01-15T09:11:59;97378.56;;;0.16;80.52
70027;BME280;57506;50.092;15.804;2024-01-15T09:14:25;97382.00;;;0.17;80.91
70027;BME280;57506;50.092;15.804;2024-01-15T09:16:52;97376.91;;;0.15;80.11
70027;BME280;57506;50.092;15.804;2024-01-15T09:19:18;97395.53;;;0.30;80.85
70027;BME280;57506;50.092;15.804;2024-01-15T09:21:43;97386.09;;;0.27;79.66
70027;BME280;57506;50.092;15.804;2024-01-15T09:24:09;97387.53;;;0.38;80.55
70027;BME280;57506;50.092;15.804;2024-01-15T09:26:34;97374.78;;;0.33;80.43
70027;BME280;57506;50.092;15.804;2024-01-15T09:29:00;97385.69;;;0.47;79.34
70027;BME280;57506;50.092;15.804;2024-01-15T09:31:26;97382.84;;;0.48;79.67
70027;BME280;57506;50.092;15.804;2024-01-15T09:33:52;97365.00;;;0.42;78.69
70027;BME280;57506;50.092;15.804;2024-01-15T09:36:21;97375.66;;;0.57;78.70
70027;BME280;57506;50.092;15.804;2024-01-15T09:38:48;97391.88;;;0.62;77.75
70027;BME280;57506;50.092;15.804;2024-01-15T09:41:14;97393.53;;;0.63;79.12
70027;BME280;57506;50.092;15.804;2024-01-15T09:43:40;97377.66;;;0.55;78.17
70027;BME280;57506;50.092;15.804;2024-01-15T09:46:07;97380.31;;;0.55;78.09
70027;BME280;57506;50.092;15.804;2024-01-15T09:48:33;97383.56;;;0.65;78.06
70027;BME280;57506;50.092;15.804;2024-01-15T09:51:01;97372.97;;;0.65;78.29
70027;BME280;57506;50.092;15.804;2024-01-15T09:53:27;97372.78;;;0.66;76.71
70027;BME280;57506;50.092;15.804;2024-01-15T09:55:53;97393.59;;;0.78;77.42
70027;BME280;57506;50.092;15.804;2024-01-15T09:58:19;97408.78;;;0.84;77.09
70027;BME280;57506;50.092;15.804;2024-01-15T10:00:45;97405.94;;;0.85;77.58
70027;BME280;57506;50.092;15.804;2024-01-15T10:03:12;97384.22;;;0.90;77.24
70027;BME280;57506;50.092;15.804;2024-01-15T10:05:38;97380.09;;;0.87;76.41
70027;BME280;57506;50.092;15.804;2024-01-15T10:08:04;97383.25;;;0.83;77.53
70027;BME280;57506;50.092;15.804;2024-01-15T10:10:31;97375.97;;;0.85;78.58
70027;BME280;57506;50.092;15.804;2024-01-15T10:12:58;97369.44;;;0.95;77.90
70027;BME280;57506;50.092;15.804;2024-01-15T10:15:28;97373.38;;;0.77;77.96
70027;BME280;57506;50.092;15.804;2024-01-15T10:17:54;97361.88;;;0.84;77.60
70027;BME280;57506;50.092;15.804;2024-01-15T10:20:20;97365.69;;;0.82;77.66
70027;BME280;57506;50.092;15.804;2024-01-15T10:22:48;97357.94;;;0.80;77.86
70027;BME280;57506;50.092;15.804;2024-01-15T10:25:14;97371.69;;;0.98;78.37
70027;BME280;57506;50.092;15.804;2024-01-15T10:27:42;97348.16;;;0.81;77.62
70027;BME280;57506;50.092;15.804;2024-01-15T10:30:09;97357.41;;;0.85;77.46
70027;BME280;57506;50.092;15.804;2024-01-15T10:32:35;97339.63;;;0.70;77.52
70027;BME280;57506;50.092;15.804;2024-01-15T10:35:00;97369.44;;;0.95;77.95
70027;BME280;57506;50.092;15.804;2024-01-15T10:37:26;97348.91;;;0.89;77.26
70027;BME280;57506;50.092;15.804;2024-01-15T10:39:52;97355.09;;;1.04;77.46
70027;BME280;57506;50.092;15.804;2024-01-15T10:42:18;97365.34;;;1.08;76.91
70027;BME280;57506;50.092;15.804;2024-01-15T10:44:44;97364.44;;;1.15;77.37
70027;BME280;57506;50.092;15.804;2024-01-15T10:47:12;97331.91;;;0.98;77.26
70027;BME280;57506;50.092;15.804;2024-01-15T10:49:38;97367.22;;;1.22;77.13
70027;BME280;57506;50.092;15.804;2024-01-15T10:52:04;97361.22;;;1.05;76.30
70027;BME280;57506;50.092;15.804;2024-01-15T10:54:30;97362.69;;;1.08;76.25
70027;BME280;57506;50.092;15.804;2024-01-15T10:56:58;97374.97;;;1.09;76.74
70027;BME280;57506;50.092;15.804;2024-01-15T10:59:24;97358.44;;;0.98;76.12
70027;BME280;57506;50.092;15.804;2024-01-15T11:01:51;97344.66;;;1.03;76.87
70027;BME280;57506;50.092;15.804;2024-01-15T11:04:21;97350.44;;;1.07;76.83
70027;BME280;57506;50.092;15.804;2024-01-15T11:06:51;97358.56;;;1.05;76.56
70027;BME280;57506;50.092;15.804;2024-01-15T11:09:18;97339.00;;;1.06;77.33
70027;BME280;57506;50.092;15.804;2024-01-15T11:11:45;97355.28;;;1.18;76.99
70027;BME280;57506;50.092;15.804;2024-01-15T11:14:38;97354.66;;;1.16;77.03
70027;BME280;57506;50.092;15.804;2024-01-15T11:17:05;97354.66;;;1.16;76.46
70027;BME280;57506;50.092;15.804;2024-01-15T11:19:44;97357.25;;;1.24;76.63
70027;BME280;57506;50.092;15.804;2024-01-15T11:22:23;97360.91;;;1.23;76.55
70027;BME280;57506;50.092;15.804;2024-01-15T11:25:03;97345.03;;;1.15;76.15
70027;BME280;57506;50.092;15.804;2024-01-15T11:30:14;97343.69;;;1.19;76.29
70027;BME280;57506;50.092;15.804;2024-01-15T11:32:40;97345.69;;;1.17;75.62
70027;BME280;57506;50.092;15.804;2024-01-15T11:35:11;97338.19;;;1.20;76.29
70027;BME280;57506;50.092;15.804;2024-01-15T11:40:36;97329.78;;;1.17;75.62
70027;BME280;57506;50.092;15.804;2024-01-15T11:43:03;97351.00;;;1.17;75.73
70027;BME280;57506;50.092;15.804;2024-01-15T11:45:30;97339.47;;;1.10;75.67
70027;BME280;57506;50.092;15.804;2024-01-15T11:48:11;97337.38;;;1.20;75.94
70027;BME280;57506;50.092;15.804;2024-01-15T11:50:48;97329.06;;;1.23;76.73
70027;BME280;57506;50.092;15.804;2024-01-15T11:53:36;97320.91;;;1.24;75.25
70027;BME280;57506;50.092;15.804;2024-01-15T11:56:14;97320.34;;;1.14;75.67
70027;BME280;57506;50.092;15.804;2024-01-15T11:58:40;97321.44;;;1.05;74.65
70027;BME280;57506;50.092;15.804;2024-01-15T12:01:05;97329.22;;;1.07;75.34
70027;BME280;57506;50.092;15.804;2024-01-15T12:03:32;97320.25;;;1.08;75.27
70027;BME280;57506;50.092;15.804;2024-01-15T12:05:58;97320.97;;;1.16;75.17
70027;BME280;57506;50.092;15.804;2024-01-15T12:08:25;97323.41;;;1.26;74.77
70027;BME280;57506;50.092;15.804;2024-01-15T12:10:52;97302.34;;;1.24;75.43
70027;BME280;57506;50.092;15.804;2024-01-15T12:13:18;97302.53;;;1.23;75.06
70027;BME280;57506;50.092;15.804;2024-01-15T12:15:45;97309.84;;;1.35;75.59
70027;BME280;57506;50.092;15.804;2024-01-15T12:18:16;97314.59;;;1.25;75.08
70027;BME280;57506;50.092;15.804;2024-01-15T12:20:43;97320.38;;;1.29;75.15
70027;BME280;57506;50.092;15.804;2024-01-15T12:23:09;97318.16;;;1.32;74.75
70027;BME280;57506;50.092;15.804;2024-01-15T12:25:35;97321.38;;;1.28;75.40
70027;BME280;57506;50.092;15.804;2024-01-15T12:28:01;97300.88;;;1.22;75.26
70027;BME280;57506;50.092;15.804;2024-01-15T12:30:28;97301.75;;;1.14;74.85
70027;BME280;57506;50.092;15.804;2024-01-15T12:32:54;97323.75;;;1.23;75.39
70027;BME280;57506;50.092;15.804;2024-01-15T12:35:20;97322.22;;;1.28;75.84
70027;BME280;57506;50.092;15.804;2024-01-15T12:37:47;97280.00;;;1.04;74.67
70027;BME280;57506;50.092;15.804;2024-01-15T12:40:13;97308.97;;;1.43;75.11
70027;BME280;57506;50.092;15.804;2024-01-15T12:42:43;97316.28;;;1.41;74.37
70027;BME280;57506;50.092;15.804;2024-01-15T12:45:10;97296.22;;;1.38;74.76
70027;BME280;57506;50.092;15.804;2024-01-15T12:47:37;97321.03;;;1.46;75.54
70027;BME280;57506;50.092;15.804;2024-01-15T12:50:06;97301.72;;;1.37;73.63
70027;BME280;57506;50.092;15.804;2024-01-15T12:52:32;97298.97;;;1.45;74.04
70027;BME280;57506;50.092;15.804;2024-01-15T12:54:57;97320.13;;;1.53;73.74
70027;BME280;57506;50.092;15.804;2024-01-15T12:57:23;97289.56;;;1.43;74.25
70027;BME280;57506;50.092;15.804;2024-01-15T12:59:49;97314.53;;;1.48;73.75